sensor_id;sensor_type;location;lat;lon;timestamp;pressure;altitude;pressure_sealevel;temperature;humidity
11077;BME280;5591;42.626;23.380;2023-04-24T00:00:37;93934.78;;;13.94;84.06
11077;BME280;5591;42.626;23.380;2023-04-24T00:03:06;93957.34;;;14.21;83.26
11077;BME280;5591;42.626;23.380;2023-04-24T00:05:34;93935.84;;;14.18;81.95
11077;BME280;5591;42.626;23.380;2023-04-24T00:08:01;93940.91;;;14.19;82.03
11077;BME280;5591;42.626;23.380;2023-04-24T00:10:28;93947.34;;;13.99;83.45
11077;BME280;5591;42.626;23.380;2023-04-24T00:12:55;93922.84;;;13.92;83.34
11077;BME280;5591;42.626;23.380;2023-04-24T00:15:22;93922.91;;;13.85;84.84
11077;BME280;5591;42.626;23.380;2023-04-24T00:17:49;93931.41;;;13.87;85.10
11077;BME280;5591;42.626;23.380;2023-04-24T00:20:15;93913.19;;;13.55;88.09
11077;BME280;5591;42.626;23.380;2023-04-24T00:22:43;93914.16;;;13.60;87.48
11077;BME280;5591;42.626;23.380;2023-04-24T00:25:10;93907.81;;;13.43;88.62
11077;BME280;5591;42.626;23.380;2023-04-24T00:27:37;93830.66;;;12.92;88.76
11077;BME280;5591;42.626;23.380;2023-04-24T00:30:05;93904.94;;;13.45;88.88
11077;BME280;5591;42.626;23.380;2023-04-24T00:32:32;93909.84;;;13.41;88.96
11077;BME280;5591;42.626;23.380;2023-04-24T00:34:58;93900.75;;;13.37;89.87
11077;BME280;5591;42.626;23.380;2023-04-24T00:37:25;93915.03;;;13.54;89.23
11077;BME280;5591;42.626;23.380;2023-04-24T00:39:54;93920.97;;;13.12;92.74
11077;BME280;5591;42.626;23.380;2023-04-24T00:42:20;93923.31;;;13.27;91.68
11077;BME280;5591;42.626;23.380;2023-04-24T00:44:47;93914.25;;;12.66;98.07
11077;BME280;5591;42.626;23.380;2023-04-24T00:47:15;93915.75;;;12.42;100.00
11077;BME280;5591;42.626;23.380;2023-04-24T00:49:41;93912.75;;;12.96;96.51
11077;BME280;5591;42.626;23.380;2023-04-24T00:52:08;93917.22;;;12.82;97.36
11077;BME280;5591;42.626;23.380;2023-04-24T00:54:36;93927.72;;;12.89;97.67
11077;BME280;5591;42.626;23.380;2023-04-24T00:57:04;93919.22;;;12.87;98.72
11077;BME280;5591;42.626;23.380;2023-04-24T00:59:31;93881.38;;;12.31;100.00
11077;BME280;5591;42.626;23.380;2023-04-24T01:01:58;93906.53;;;12.71;100.00
11077;BME280;5591;42.626;23.380;2023-04-24T01:04:25;93923.00;;;12.47;100.00
11077;BME280;5591;42.626;23.380;2023-04-24T01:06:52;93935.75;;;12.50;100.00
11077;BME280;5591;42.626;23.380;2023-04-24T01:09:21;93925.63;;;12.53;100.00
11077;BME280;5591;42.626;23.380;2023-04-24T01:11:49;93929.09;;;12.47;100.00
11077;BME280;5591;42.626;23.380;2023-04-24T01:14:18;93927.34;;;12.22;100.00
11077;BME280;5591;42.626;23.380;2023-04-24T01:16:45;93931.06;;;12.65;100.00
11077;BME280;5591;42.626;23.380;2023-04-24T01:19:13;93921.25;;;12.91;100.00
11077;BME280;5591;42.626;23.380;2023-04-24T01:21:42;93913.63;;;13.21;100.00
11077;BME280;5591;42.626;23.380;2023-04-24T01:24:11;93894.97;;;13.22;100.00
11077;BME280;5591;42.626;23.380;2023-04-24T01:26:38;93901.56;;;13.38;100.00
11077;BME280;5591;42.626;23.380;2023-04-24T01:29:05;93905.56;;;13.40;100.00
11077;BME280;5591;42.626;23.380;2023-04-24T01:31:32;93896.19;;;13.51;100.00
11077;BME280;5591;42.626;23.380;2023-04-24T01:34:00;93893.31;;;13.59;100.00
11077;BME280;5591;42.626;23.380;2023-04-24T01:36:27;93891.81;;;13.38;100.00
11077;BME280;5591;42.626;23.380;2023-04-24T01:38:55;93892.16;;;13.17;100.00
11077;BME280;5591;42.626;23.380;2023-04-24T01:41:23;93885.69;;;12.69;100.00
11077;BME280;5591;42.626;23.380;2023-04-24T01:43:50;93888.63;;;12.92;100.00
11077;BME280;5591;42.626;23.380;2023-04-24T01:46:17;93886.09;;;12.73;100.00
11077;BME280;5591;42.626;23.380;2023-04-24T01:48:45;93853.97;;;12.51;100.00
11077;BME280;5591;42.626;23.380;2023-04-24T01:51:12;93863.28;;;12.54;100.00
11077;BME280;5591;42.626;23.380;2023-04-24T01:53:39;93906.31;;;12.72;100.00
11077;BME280;5591;42.626;23.380;2023-04-24T01:56:06;93876.84;;;12.57;100.00
11077;BME280;5591;42.626;23.380;2023-04-24T01:58:35;93883.34;;;12.48;100.00
11077;BME280;5591;42.626;23.380;2023-04-24T02:01:02;93872.03;;;12.41;100.00
11077;BME280;5591;42.626;23.380;2023-04-24T02:03:29;93873.44;;;12.44;100.00
11077;BME280;5591;42.626;23.380;2023-04-24T02:05:56;93871.66;;;12.32;100.00
11077;BME280;5591;42.626;23.380;2023-04-24T02:08:23;93847.03;;;12.13;100.00
11077;BME280;5591;42.626;23.380;2023-04-24T02:10:49;93870.06;;;12.18;100.00
11077;BME280;5591;42.626;23.380;2023-04-24T02:13:16;93860.00;;;11.95;100.00
11077;BME280;5591;42.626;23.380;2023-04-24T02:15:44;93851.50;;;11.93;100.00
11077;BME280;5591;42.626;23.380;2023-04-24T02:18:11;93865.41;;;12.20;100.00
11077;BME280;5591;42.626;23.380;2023-04-24T02:20:38;93877.56;;;12.14;100.00
11077;BME280;5591;42.626;23.380;2023-04-24T02:23:05;93868.50;;;11.84;100.00
11077;BME280;5591;42.626;23.380;2023-04-24T02:25:33;93868.13;;;11.61;100.00
11077;BME280;5591;42.626;23.380;2023-04-24T02:28:00;93870.56;;;11.76;100.00
11077;BME280;5591;42.626;23.380;2023-04-24T02:30:27;93873.78;;;11.52;100.00
11077;BME280;5591;42.626;23.380;2023-04-24T02:32:55;93876.81;;;11.55;100.00
11077;BME280;5591;42.626;23.380;2023-04-24T02:35:22;93857.44;;;11.63;100.00
11077;BME280;5591;42.626;23.380;2023-04-24T02:37:49;93854.16;;;11.80;100.00
11077;BME280;5591;42.626;23.380;2023-04-24T02:40:16;93851.75;;;11.72;100.00
11077;BME280;5591;42.626;23.380;2023-04-24T02:42:42;93845.88;;;11.25;100.00
11077;BME280;5591;42.626;23.380;2023-04-24T02:45:10;93862.25;;;11.46;100.00
11077;BME280;5591;42.626;23.380;2023-04-24T02:47:37;93841.81;;;11.55;100.00
11077;BME280;5591;42.626;23.380;2023-04-24T02:50:07;93851.31;;;11.75;100.00
11077;BME280;5591;42.626;23.380;2023-04-24T02:52:33;93851.94;;;11.71;100.00
11077;BME280;5591;42.626;23.380;2023-04-24T02:55:00;93844.28;;;11.69;100.00
11077;BME280;5591;42.626;23.380;2023-04-24T02:57:27;93849.50;;;11.82;100.00
11077;BME280;5591;42.626;23.380;2023-04-24T02:59:54;93850.53;;;11.36;100.00
11077;BME280;5591;42.626;23.380;2023-04-24T03:02:21;93802.22;;;11.24;100.00
11077;BME280;5591;42.626;23.380;2023-04-24T03:04:47;93849.91;;;11.47;100.00
11077;BME280;5591;42.626;23.380;2023-04-24T03:07:16;93845.03;;;11.05;100.00
11077;BME280;5591;42.626;23.380;2023-04-24T03:09:46;93851.34;;;11.23;100.00
11077;BME280;5591;42.626;23.380;2023-04-24T03:12:12;93856.38;;;11.18;100.00
11077;BME280;5591;42.626;23.380;2023-04-24T03:14:39;93859.59;;;11.27;100.00
11077;BME280;5591;42.626;23.380;2023-04-24T03:17:06;93865.69;;;11.47;100.00
11077;BME280;5591;42.626;23.380;2023-04-24T03:19:33;93861.63;;;11.38;100.00
11077;BME280;5591;42.626;23.380;2023-04-24T03:22:01;93864.84;;;11.33;100.00
11077;BME280;5591;42.626;23.380;2023-04-24T03:24:29;93871.34;;;11.18;100.00
11077;BME280;5591;42.626;23.380;2023-04-24T03:26:57;93845.44;;;10.95;100.00
11077;BME280;5591;42.626;23.380;2023-04-24T03:29:24;93863.66;;;11.10;100.00
11077;BME280;5591;42.626;23.380;2023-04-24T03:31:50;93871.69;;;11.02;100.00
11077;BME280;5591;42.626;23.380;2023-04-24T03:34:17;93870.69;;;11.16;100.00
11077;BME280;5591;42.626;23.380;2023-04-24T03:36:44;93868.50;;;11.19;100.00
11077;BME280;5591;42.626;23.380;2023-04-24T03:39:12;93869.13;;;11.41;100.00
11077;BME280;5591;42.626;23.380;2023-04-24T03:41:41;93866.09;;;11.37;100.00
11077;BME280;5591;42.626;23.380;2023-04-24T03:44:07;93881.03;;;11.30;100.00
11077;BME280;5591;42.626;23.380;2023-04-24T03:46:34;93866.69;;;11.26;100.00
11077;BME280;5591;42.626;23.380;2023-04-24T03:49:01;93861.63;;;11.38;100.00
11077;BME280;5591;42.626;23.380;2023-04-24T03:51:28;93867.09;;;11.36;100.00
11077;BME280;5591;42.626;23.380;2023-04-24T03:53:55;93859.66;;;11.59;100.00
11077;BME280;5591;42.626;23.380;2023-04-24T03:56:22;93860.41;;;11.27;100.00
11077;BME280;5591;42.626;23.380;2023-04-24T03:58:50;93849.13;;;11.40;100.00
11077;BME280;5591;42.626;23.380;2023-04-24T04:01:17;93862.47;;;11.84;100.00
11077;BME280;5591;42.626;23.380;2023-04-24T04:03:46;93854.38;;;11.79;100.00
11077;BME280;5591;42.626;23.380;2023-04-24T04:06:13;93859.81;;;11.97;100.00
11077;BME280;5591;42.626;23.380;2023-04-24T04:08:40;93866.94;;;11.64;100.00
11077;BME280;5591;42.626;23.380;2023-04-24T04:11:06;93866.63;;;12.17;100.00
11077;BME280;5591;42.626;23.380;2023-04-24T04:13:33;93836.91;;;12.10;100.00
11077;BME280;5591;42.626;23.380;2023-04-24T04:16:01;93874.47;;;12.37;100.00
11077;BME280;5591;42.626;23.380;2023-04-24T04:18:28;93862.13;;;12.31;100.00
11077;BME280;5591;42.626;23.380;2023-04-24T04:20:55;93871.22;;;12.41;100.00
11077;BME280;5591;42.626;23.380;2023-04-24T04:23:22;93872.69;;;12.24;100.00
11077;BME280;5591;42.626;23.380;2023-04-24T04:25:49;93857.59;;;12.57;100.00
11077;BME280;5591;42.626;23.380;2023-04-24T04:28:17;93772.59;;;12.43;100.00
11077;BME280;5591;42.626;23.380;2023-04-24T04:30:46;93837.09;;;13.09;100.00
11077;BME280;5591;42.626;23.380;2023-04-24T04:33:14;93857.84;;;13.24;100.00
11077;BME280;5591;42.626;23.380;2023-04-24T04:35:41;93868.66;;;13.40;100.00
11077;BME280;5591;42.626;23.380;2023-04-24T04:38:08;93869.25;;;13.49;100.00
11077;BME280;5591;42.626;23.380;2023-04-24T04:40:36;93870.31;;;13.10;100.00
11077;BME280;5591;42.626;23.380;2023-04-24T04:43:03;93777.75;;;12.32;100.00
11077;BME280;5591;42.626;23.380;2023-04-24T04:45:29;93875.78;;;13.40;100.00
11077;BME280;5591;42.626;23.380;2023-04-24T04:47:58;93875.53;;;13.17;100.00
11077;BME280;5591;42.626;23.380;2023-04-24T04:50:27;93883.81;;;12.83;100.00
11077;BME280;5591;42.626;23.380;2023-04-24T04:52:54;93895.47;;;12.56;100.00
11077;BME280;5591;42.626;23.380;2023-04-24T04:55:21;93892.41;;;13.09;100.00
11077;BME280;5591;42.626;23.380;2023-04-24T04:57:48;93902.56;;;12.93;100.00
11077;BME280;5591;42.626;23.380;2023-04-24T05:00:15;93876.53;;;12.72;100.00
11077;BME280;5591;42.626;23.380;2023-04-24T05:02:42;93898.22;;;12.74;100.00
11077;BME280;5591;42.626;23.380;2023-04-24T05:05:08;93903.47;;;13.24;100.00
11077;BME280;5591;42.626;23.380;2023-04-24T05:07:37;93907.59;;;13.07;100.00
11077;BME280;5591;42.626;23.380;2023-04-24T05:10:05;93897.00;;;13.20;100.00
11077;BME280;5591;42.626;23.380;2023-04-24T05:12:31;93896.00;;;13.21;100.00
11077;BME280;5591;42.626;23.380;2023-04-24T05:14:58;93893.22;;;13.10;100.00
11077;BME280;5591;42.626;23.380;2023-04-24T05:17:25;93804.19;;;12.81;100.00
11077;BME280;5591;42.626;23.380;2023-04-24T05:19:52;93894.41;;;13.45;100.00
11077;BME280;5591;42.626;23.380;2023-04-24T05:22:19;93898.16;;;13.31;100.00
11077;BME280;5591;42.626;23.380;2023-04-24T05:24:47;93897.22;;;12.75;100.00
11077;BME280;5591;42.626;23.380;2023-04-24T05:27:14;93888.22;;;12.89;100.00
11077;BME280;5591;42.626;23.380;2023-04-24T05:29:41;93894.75;;;12.80;100.00
11077;BME280;5591;42.626;23.380;2023-04-24T05:32:08;93894.69;;;13.37;100.00
11077;BME280;5591;42.626;23.380;2023-04-24T05:34:35;93896.03;;;13.70;100.00
11077;BME280;5591;42.626;23.380;2023-04-24T05:37:02;93891.41;;;13.66;100.00
11077;BME280;5591;42.626;23.380;2023-04-24T05:39:33;93904.69;;;13.53;100.00
11077;BME280;5591;42.626;23.380;2023-04-24T05:42:01;93902.00;;;13.59;100.00
11077;BME280;5591;42.626;23.380;2023-04-24T05:44:29;93831.19;;;13.07;100.00
11077;BME280;5591;42.626;23.380;2023-04-24T05:46:56;93900.53;;;14.12;99.90
11077;BME280;5591;42.626;23.380;2023-04-24T05:49:23;93890.41;;;14.34;97.05
11077;BME280;5591;42.626;23.380;2023-04-24T05:51:50;93903.28;;;14.48;94.52
11077;BME280;5591;42.626;23.380;2023-04-24T05:54:17;93883.66;;;13.46;98.98
11077;BME280;5591;42.626;23.380;2023-04-24T05:56:43;93906.03;;;13.62;98.36
11077;BME280;5591;42.626;23.380;2023-04-24T05:59:12;93901.03;;;13.78;100.00
11077;BME280;5591;42.626;23.380;2023-04-24T06:01:38;93897.31;;;14.35;95.52
11077;BME280;5591;42.626;23.380;2023-04-24T06:04:05;93903.56;;;13.91;96.49
11077;BME280;5591;42.626;23.380;2023-04-24T06:06:33;93902.28;;;14.00;97.78
11077;BME280;5591;42.626;23.380;2023-04-24T06:08:59;93894.25;;;14.56;95.20
11077;BME280;5591;42.626;23.380;2023-04-24T06:11:27;93883.06;;;14.72;94.43
11077;BME280;5591;42.626;23.380;2023-04-24T06:13:54;93892.16;;;14.93;92.53
11077;BME280;5591;42.626;23.380;2023-04-24T06:16:22;93893.16;;;15.10;90.70
11077;BME280;5591;42.626;23.380;2023-04-24T06:18:49;93886.91;;;14.76;91.33
11077;BME280;5591;42.626;23.380;2023-04-24T06:21:16;93893.34;;;15.56;87.46
11077;BME280;5591;42.626;23.380;2023-04-24T06:23:43;93887.34;;;16.13;82.42
11077;BME280;5591;42.626;23.380;2023-04-24T06:26:11;93891.25;;;16.34;78.35
11077;BME280;5591;42.626;23.380;2023-04-24T06:28:38;93887.81;;;16.56;77.50
11077;BME280;5591;42.626;23.380;2023-04-24T06:31:05;93894.56;;;16.18;78.07
11077;BME280;5591;42.626;23.380;2023-04-24T06:33:33;93892.84;;;16.23;79.21
11077;BME280;5591;42.626;23.380;2023-04-24T06:36:00;93882.59;;;16.27;77.56
11077;BME280;5591;42.626;23.380;2023-04-24T06:38:27;93893.38;;;15.79;81.42
11077;BME280;5591;42.626;23.380;2023-04-24T06:40:54;93890.28;;;16.74;76.59
11077;BME280;5591;42.626;23.380;2023-04-24T06:43:21;93885.72;;;17.49;72.46
11077;BME280;5591;42.626;23.380;2023-04-24T06:45:48;93888.25;;;17.88;68.28
11077;BME280;5591;42.626;23.380;2023-04-24T06:48:15;93881.22;;;17.10;69.00
11077;BME280;5591;42.626;23.380;2023-04-24T06:50:43;93888.97;;;17.00;70.99
11077;BME280;5591;42.626;23.380;2023-04-24T06:53:10;93895.44;;;17.32;68.94
11077;BME280;5591;42.626;23.380;2023-04-24T06:55:38;93886.94;;;16.90;68.79
11077;BME280;5591;42.626;23.380;2023-04-24T06:58:04;93893.13;;;16.96;70.50
11077;BME280;5591;42.626;23.380;2023-04-24T07:00:31;93902.09;;;16.44;71.56
11077;BME280;5591;42.626;23.380;2023-04-24T07:02:58;93900.47;;;16.20;72.13
11077;BME280;5591;42.626;23.380;2023-04-24T07:05:25;93888.09;;;15.79;75.83
11077;BME280;5591;42.626;23.380;2023-04-24T07:07:53;93891.34;;;15.93;74.15
11077;BME280;5591;42.626;23.380;2023-04-24T07:10:20;93882.38;;;16.63;70.49
11077;BME280;5591;42.626;23.380;2023-04-24T07:12:47;93880.72;;;16.85;67.71
11077;BME280;5591;42.626;23.380;2023-04-24T07:15:14;93883.94;;;16.87;67.92
11077;BME280;5591;42.626;23.380;2023-04-24T07:17:41;93882.69;;;17.17;66.90
11077;BME280;5591;42.626;23.380;2023-04-24T07:20:09;93880.66;;;17.08;65.51
11077;BME280;5591;42.626;23.380;2023-04-24T07:22:37;93880.22;;;16.48;69.01
11077;BME280;5591;42.626;23.380;2023-04-24T07:25:06;93888.25;;;16.30;69.61
11077;BME280;5591;42.626;23.380;2023-04-24T07:27:33;93887.69;;;16.28;71.15
11077;BME280;5591;42.626;23.380;2023-04-24T07:30:00;93872.72;;;16.11;71.03
11077;BME280;5591;42.626;23.380;2023-04-24T07:32:27;93891.59;;;16.14;71.92
11077;BME280;5591;42.626;23.380;2023-04-24T07:34:54;93872.97;;;17.23;66.80
11077;BME280;5591;42.626;23.380;2023-04-24T07:37:20;93856.22;;;17.78;63.33
11077;BME280;5591;42.626;23.380;2023-04-24T07:39:48;93862.91;;;17.80;62.38
11077;BME280;5591;42.626;23.380;2023-04-24T07:42:16;93853.34;;;17.35;63.70
11077;BME280;5591;42.626;23.380;2023-04-24T07:44:43;93871.84;;;17.19;66.40
11077;BME280;5591;42.626;23.380;2023-04-24T07:47:11;93856.13;;;17.57;63.60
11077;BME280;5591;42.626;23.380;2023-04-24T07:49:38;93868.38;;;17.18;64.90
11077;BME280;5591;42.626;23.380;2023-04-24T07:52:04;93870.66;;;16.98;67.30
11077;BME280;5591;42.626;23.380;2023-04-24T07:54:31;93859.63;;;17.18;66.86
11077;BME280;5591;42.626;23.380;2023-04-24T07:56:58;93851.59;;;17.29;65.80
11077;BME280;5591;42.626;23.380;2023-04-24T07:59:27;93848.03;;;17.96;64.90
11077;BME280;5591;42.626;23.380;2023-04-24T08:01:53;93845.56;;;18.27;61.79
11077;BME280;5591;42.626;23.380;2023-04-24T08:04:21;93770.47;;;17.77;62.25
11077;BME280;5591;42.626;23.380;2023-04-24T08:06:47;93843.69;;;18.82;60.88
11077;BME280;5591;42.626;23.380;2023-04-24T08:09:14;93855.94;;;18.83;61.43
11077;BME280;5591;42.626;23.380;2023-04-24T08:11:41;93851.81;;;18.71;59.49
11077;BME280;5591;42.626;23.380;2023-04-24T08:14:08;93855.00;;;19.16;58.40
11077;BME280;5591;42.626;23.380;2023-04-24T08:16:36;93835.44;;;19.48;56.82
11077;BME280;5591;42.626;23.380;2023-04-24T08:19:03;93843.81;;;19.93;56.03
11077;BME280;5591;42.626;23.380;2023-04-24T08:21:30;93826.06;;;19.72;56.35
11077;BME280;5591;42.626;23.380;2023-04-24T08:23:57;93830.25;;;20.26;55.09
11077;BME280;5591;42.626;23.380;2023-04-24T08:26:24;93828.59;;;20.20;54.94
11077;BME280;5591;42.626;23.380;2023-04-24T08:28:51;93819.38;;;20.37;54.27
11077;BME280;5591;42.626;23.380;2023-04-24T08:31:17;93821.97;;;20.74;53.31
11077;BME280;5591;42.626;23.380;2023-04-24T08:33:46;93798.38;;;20.46;54.00
11077;BME280;5591;42.626;23.380;2023-04-24T08:36:12;93813.97;;;20.69;53.06
11077;BME280;5591;42.626;23.380;2023-04-24T08:38:39;93815.53;;;20.65;52.49
11077;BME280;5591;42.626;23.380;2023-04-24T08:41:07;93807.44;;;20.96;52.13
11077;BME280;5591;42.626;23.380;2023-04-24T08:43:34;93801.59;;;20.48;53.00
11077;BME280;5591;42.626;23.380;2023-04-24T08:46:04;93819.78;;;21.22;51.33
11077;BME280;5591;42.626;23.380;2023-04-24T08:48:31;93810.22;;;21.41;50.95
11077;BME280;5591;42.626;23.380;2023-04-24T08:50:59;93784.56;;;21.30;50.19
11077;BME280;5591;42.626;23.380;2023-04-24T08:53:26;93805.16;;;21.45;51.56
11077;BME280;5591;42.626;23.380;2023-04-24T08:55:54;93807.28;;;21.33;51.10
11077;BME280;5591;42.626;23.380;2023-04-24T08:58:22;93795.25;;;21.30;50.46
11077;BME280;5591;42.626;23.380;2023-04-24T09:00:52;93794.81;;;21.68;50.54
11077;BME280;5591;42.626;23.380;2023-04-24T09:03:21;93708.50;;;21.53;49.23
11077;BME280;5591;42.626;23.380;2023-04-24T09:05:49;93786.19;;;22.61;48.02
11077;BME280;5591;42.626;23.380;2023-04-24T09:08:18;93790.69;;;22.81;47.44
11077;BME280;5591;42.626;23.380;2023-04-24T09:10:46;93787.31;;;23.18;47.23
11077;BME280;5591;42.626;23.380;2023-04-24T09:13:13;93785.47;;;23.14;46.75
11077;BME280;5591;42.626;23.380;2023-04-24T09:15:41;93776.94;;;23.50;45.96
11077;BME280;5591;42.626;23.380;2023-04-24T09:18:08;93786.72;;;22.58;46.21
11077;BME280;5591;42.626;23.380;2023-04-24T09:20:35;93785.59;;;22.84;47.11
11077;BME280;5591;42.626;23.380;2023-04-24T09:23:25;93760.28;;;22.37;46.27
11077;BME280;5591;42.626;23.380;2023-04-24T09:25:55;93679.34;;;21.96;45.88
11077;BME280;5591;42.626;23.380;2023-04-24T09:28:25;93770.78;;;22.97;46.27
11077;BME280;5591;42.626;23.380;2023-04-24T09:31:07;93753.47;;;23.37;44.53
11077;BME280;5591;42.626;23.380;2023-04-24T09:33:34;93746.09;;;22.36;45.67
11077;BME280;5591;42.626;23.380;2023-04-24T09:36:01;93763.31;;;22.89;46.26
11077;BME280;5591;42.626;23.380;2023-04-24T09:38:34;93759.56;;;23.48;45.52
11077;BME280;5591;42.626;23.380;2023-04-24T09:41:01;93748.06;;;23.86;44.86
11077;BME280;5591;42.626;23.380;2023-04-24T09:43:29;93672.22;;;23.47;44.39
11077;BME280;5591;42.626;23.380;2023-04-24T09:45:57;93745.94;;;24.11;44.40
11077;BME280;5591;42.626;23.380;2023-04-24T09:48:31;93760.66;;;24.71;43.57
11077;BME280;5591;42.626;23.380;2023-04-24T09:50:59;93747.19;;;24.24;43.31
11077;BME280;5591;42.626;23.380;2023-04-24T09:53:27;93748.44;;;23.26;44.39
11077;BME280;5591;42.626;23.380;2023-04-24T09:55:55;93696.88;;;23.49;43.96
11077;BME280;5591;42.626;23.380;2023-04-24T09:58:24;93744.00;;;23.02;44.97
11077;BME280;5591;42.626;23.380;2023-04-24T10:00:53;93733.03;;;23.85;44.12
11077;BME280;5591;42.626;23.380;2023-04-24T10:03:20;93718.22;;;23.92;43.44
11077;BME280;5591;42.626;23.380;2023-04-24T10:05:47;93722.88;;;24.39;43.60
11077;BME280;5591;42.626;23.380;2023-04-24T10:08:14;93722.13;;;24.80;42.43
11077;BME280;5591;42.626;23.380;2023-04-24T10:10:42;93713.03;;;24.53;42.14
11077;BME280;5591;42.626;23.380;2023-04-24T10:13:12;93715.28;;;24.69;41.03
11077;BME280;5591;42.626;23.380;2023-04-24T10:15:40;93652.06;;;24.11;40.71
11077;BME280;5591;42.626;23.380;2023-04-24T10:18:08;93701.63;;;24.42;40.74
11077;BME280;5591;42.626;23.380;2023-04-24T10:20:36;93701.84;;;24.93;41.35
11077;BME280;5591;42.626;23.380;2023-04-24T10:23:03;93695.09;;;24.77;41.76
11077;BME280;5591;42.626;23.380;2023-04-24T10:25:32;93690.53;;;24.96;40.56
11077;BME280;5591;42.626;23.380;2023-04-24T10:28:00;93692.97;;;24.50;41.93
11077;BME280;5591;42.626;23.380;2023-04-24T10:30:29;93696.31;;;24.14;41.88
11077;BME280;5591;42.626;23.380;2023-04-24T10:33:00;93687.50;;;24.60;41.24
11077;BME280;5591;42.626;23.380;2023-04-24T10:35:30;93695.25;;;24.38;41.19
11077;BME280;5591;42.626;23.380;2023-04-24T10:37:59;93682.81;;;24.71;40.64
11077;BME280;5591;42.626;23.380;2023-04-24T10:40:31;93679.03;;;25.83;39.35
11077;BME280;5591;42.626;23.380;2023-04-24T10:42:58;93682.13;;;25.58;38.55
11077;BME280;5591;42.626;23.380;2023-04-24T10:45:25;93672.81;;;24.29;39.46
11077;BME280;5591;42.626;23.380;2023-04-24T10:47:56;93670.16;;;24.24;38.63
11077;BME280;5591;42.626;23.380;2023-04-24T10:50:25;93668.06;;;24.45;39.50
11077;BME280;5591;42.626;23.380;2023-04-24T10:52:53;93664.72;;;25.69;37.42
11077;BME280;5591;42.626;23.380;2023-04-24T10:55:40;93658.81;;;24.98;38.29
11077;BME280;5591;42.626;23.380;2023-04-24T10:58:07;93664.69;;;26.32;36.86
11077;BME280;5591;42.626;23.380;2023-04-24T11:00:36;93661.22;;;26.86;35.26
11077;BME280;5591;42.626;23.380;2023-04-24T11:03:06;93656.31;;;27.01;34.81
11077;BME280;5591;42.626;23.380;2023-04-24T11:05:58;93623.06;;;27.06;34.85
11077;BME280;5591;42.626;23.380;2023-04-24T11:08:27;93644.22;;;27.92;34.22
11077;BME280;5591;42.626;23.380;2023-04-24T11:10:59;93663.31;;;27.38;33.47
11077;BME280;5591;42.626;23.380;2023-04-24T11:13:27;93639.56;;;27.62;33.95
11077;BME280;5591;42.626;23.380;2023-04-24T11:16:16;93647.69;;;26.50;34.97
11077;BME280;5591;42.626;23.380;2023-04-24T11:18:52;93638.88;;;26.45;35.35
11077;BME280;5591;42.626;23.380;2023-04-24T11:21:20;93646.97;;;25.86;36.64
11077;BME280;5591;42.626;23.380;2023-04-24T11:23:47;93648.34;;;24.59;37.11
11077;BME280;5591;42.626;23.380;2023-04-24T11:26:18;93646.81;;;24.01;37.99
11077;BME280;5591;42.626;23.380;2023-04-24T11:28:49;93652.78;;;23.65;38.58
11077;BME280;5591;42.626;23.380;2023-04-24T11:31:38;93661.53;;;23.03;39.21
11077;BME280;5591;42.626;23.380;2023-04-24T11:34:11;93682.81;;;22.80;40.51
11077;BME280;5591;42.626;23.380;2023-04-24T11:36:39;93708.47;;;22.03;41.62
11077;BME280;5591;42.626;23.380;2023-04-24T11:39:06;93702.50;;;20.81;45.79
11077;BME280;5591;42.626;23.380;2023-04-24T11:41:34;93665.00;;;19.80;50.25
11077;BME280;5591;42.626;23.380;2023-04-24T11:44:02;93710.94;;;20.02;48.86
11077;BME280;5591;42.626;23.380;2023-04-24T11:46:30;93691.16;;;19.88;48.83
11077;BME280;5591;42.626;23.380;2023-04-24T11:48:57;93706.91;;;19.99;52.72
11077;BME280;5591;42.626;23.380;2023-04-24T11:51:27;93697.16;;;19.37;58.76
11077;BME280;5591;42.626;23.380;2023-04-24T11:53:54;93709.00;;;18.93;58.34
11077;BME280;5591;42.626;23.380;2023-04-24T11:56:22;93628.91;;;18.89;54.06
11077;BME280;5591;42.626;23.380;2023-04-24T11:58:51;93698.16;;;19.62;53.51
11077;BME280;5591;42.626;23.380;2023-04-24T12:01:18;93680.44;;;20.24;51.10
11077;BME280;5591;42.626;23.380;2023-04-24T12:03:48;93695.25;;;20.66;52.19
11077;BME280;5591;42.626;23.380;2023-04-24T12:06:16;93667.34;;;21.49;49.35
11077;BME280;5591;42.626;23.380;2023-04-24T12:08:47;93669.16;;;22.08;49.71
11077;BME280;5591;42.626;23.380;2023-04-24T12:11:15;93646.28;;;21.72;49.29
11077;BME280;5591;42.626;23.380;2023-04-24T12:13:43;93657.94;;;22.06;49.84
11077;BME280;5591;42.626;23.380;2023-04-24T12:16:10;93649.34;;;22.83;50.14
11077;BME280;5591;42.626;23.380;2023-04-24T12:18:41;93638.22;;;23.09;49.09
11077;BME280;5591;42.626;23.380;2023-04-24T12:21:16;93632.00;;;23.18;48.33
11077;BME280;5591;42.626;23.380;2023-04-24T12:23:43;93637.25;;;22.95;47.19
11077;BME280;5591;42.626;23.380;2023-04-24T12:26:15;93651.75;;;22.21;49.08
11077;BME280;5591;42.626;23.380;2023-04-24T12:28:42;93643.88;;;21.06;50.42
11077;BME280;5591;42.626;23.380;2023-04-24T12:31:09;93639.50;;;20.60;52.55
11077;BME280;5591;42.626;23.380;2023-04-24T12:33:36;93644.59;;;19.54;56.47
11077;BME280;5591;42.626;23.380;2023-04-24T12:36:04;93579.78;;;18.65;61.71
11077;BME280;5591;42.626;23.380;2023-04-24T12:38:31;93637.44;;;18.65;64.16
11077;BME280;5591;42.626;23.380;2023-04-24T12:41:07;93624.19;;;18.96;60.77
11077;BME280;5591;42.626;23.380;2023-04-24T12:43:35;93540.44;;;19.04;59.28
11077;BME280;5591;42.626;23.380;2023-04-24T12:46:03;93594.06;;;20.15;56.01
11077;BME280;5591;42.626;23.380;2023-04-24T12:48:30;93586.31;;;20.14;55.16
11077;BME280;5591;42.626;23.380;2023-04-24T12:50:58;93580.50;;;20.36;53.85
11077;BME280;5591;42.626;23.380;2023-04-24T12:53:27;93605.94;;;20.79;52.88
11077;BME280;5591;42.626;23.380;2023-04-24T12:55:55;93581.28;;;20.27;58.88
11077;BME280;5591;42.626;23.380;2023-04-24T12:58:22;93582.97;;;20.58;59.27
11077;BME280;5591;42.626;23.380;2023-04-24T13:00:50;93575.81;;;21.28;56.63